Weather reports worldwide

Advertisment
Rodkallen, Sweden (2188): temperature & dewpoint: 12.07.2018 10:00:00 - 18.07.2018 10:00:00 (CEST)Rodkallen, Sweden (2188): wind speed & gusts: 12.07.2018 10:00:00 - 18.07.2018 10:00:00 (CEST)Rodkallen, Sweden (2188): wind direction: 12.07.2018 10:00:00 - 18.07.2018 10:00:00 (CEST)Rodkallen, Sweden (2188): visibility: 12.07.2018 10:00:00 - 18.07.2018 10:00:00 (CEST)Rodkallen, Sweden (2188): precipitation: 12.07.2018 10:00:00 - 18.07.2018 10:00:00 (CEST)
Date & Time tt [°C] td [°C] ff [km/h] ff [kn] fx [km/h] fx [kn] dd vv [km] rr [mm]
18.07.2018 10:00:00 - - - - - - - - -
18.07.2018 09:00:00 22,6 18,6 15 8 20 11 ESE 30 0,0
18.07.2018 08:00:00 22,6 19,0 15 8 18 10 ESE 33 0,0
18.07.2018 07:00:00 22,7 19,3 7 4 16 9 E 38 0,0
18.07.2018 06:00:00 22,5 19,5 10 5 16 9 NNE 46 0,0
18.07.2018 05:00:00 21,9 18,9 12 7 14 8 N 43 0,0
18.07.2018 04:00:00 21,4 19,0 10 5 14 8 N 50 0,0
18.07.2018 03:00:00 20,8 18,9 9 5 12 6 N 50 0,0
18.07.2018 02:00:00 20,6 18,5 7 4 12 6 NNW 50 0,0
18.07.2018 01:00:00 20,6 17,2 8 5 10 5 NNW 50 0,0
18.07.2018 00:00:00 20,6 18,4 6 4 8 5 NW 25 0,0
17.07.2018 23:00:00 20,8 18,9 6 3 7 4 NW 50 0,0
17.07.2018 22:00:00 22,1 18,9 0 0 4 2 N 50 0,0
17.07.2018 21:00:00 22,3 18,5 0 0 5 3 N 50 0,0
17.07.2018 20:00:00 22,7 18,0 0 0 6 3 N 50 0,0
17.07.2018 19:00:00 22,7 17,8 4 2 9 5 ENE 49 0,0
17.07.2018 18:00:00 22,9 17,1 4 2 10 5 E 42 0,0
17.07.2018 17:00:00 23,2 16,7 8 4 10 5 E 48 0,0
17.07.2018 16:00:00 23,4 15,2 8 4 11 6 E 50 0,0
17.07.2018 15:00:00 23,0 16,3 7 4 11 6 ENE 42 0,0
17.07.2018 14:00:00 22,6 16,8 8 4 12 7 ENE 39 0,0
17.07.2018 13:00:00 22,1 17,5 9 5 12 7 ENE 41 0,0
17.07.2018 12:00:00 22,0 16,9 9 5 12 7 NE 45 0,0
17.07.2018 11:00:00 21,9 15,5 10 5 12 7 NE 42 0,0
17.07.2018 10:00:00 21,6 15,2 9 5 11 6 NE 49 0,0
17.07.2018 09:00:00 21,0 16,8 8 4 11 6 ENE 43 0,0
17.07.2018 08:00:00 20,9 16,9 7 4 11 6 E 38 0,0
17.07.2018 07:00:00 20,5 17,1 6 3 9 5 E 48 0,0
17.07.2018 06:00:00 20,6 15,4 4 2 10 5 SE 50 0,0
17.07.2018 05:00:00 19,8 16,4 6 3 13 7 SSE 50 0,0
17.07.2018 04:00:00 19,6 17,2 9 5 13 7 S 49 0,0
17.07.2018 03:00:00 19,5 16,2 10 6 16 9 SSE 50 0,0
17.07.2018 02:00:00 19,7 16,0 11 6 16 9 SE 50 0,0
17.07.2018 01:00:00 19,6 16,6 12 6 14 8 SE 50 0,0
17.07.2018 00:00:00 19,9 16,9 8 4 10 5 SE 50 0,0
16.07.2018 23:00:00 19,9 16,9 6 3 8 4 SE 50 0,0
16.07.2018 22:00:00 20,2 16,4 6 3 10 5 SSE 50 0,0
16.07.2018 21:00:00 20,7 16,9 5 3 15 8 S 34 0,0
16.07.2018 20:00:00 21,1 16,5 9 5 20 11 SSW 50 0,0
16.07.2018 19:00:00 21,6 16,1 14 7 20 11 SSW 48 0,0
16.07.2018 18:00:00 22,0 16,9 17 9 20 11 SSW 47 0,0
16.07.2018 17:00:00 22,7 16,0 11 6 14 8 S 42 0,0
16.07.2018 16:00:00 22,7 16,3 12 6 16 9 S 43 0,0
16.07.2018 15:00:00 22,9 15,5 12 7 16 9 S 46 0,0
16.07.2018 14:00:00 22,2 15,8 12 6 16 8 SSW 46 0,0
16.07.2018 13:00:00 22,5 16,1 13 7 16 8 S 42 0,0
16.07.2018 12:00:00 21,7 15,5 10 5 13 7 SSW 50 0,0
16.07.2018 11:00:00 21,3 14,7 6 3 15 8 WSW 34 0,0
16.07.2018 10:00:00 20,9 14,5 11 6 19 10 W 46 0,0
16.07.2018 09:00:00 20,2 13,6 10 5 20 11 W 35 0,0
16.07.2018 08:00:00 20,0 12,7 16 9 23 12 WNW 43 0,0
16.07.2018 07:00:00 19,1 12,8 19 10 26 14 W 44 0,0
16.07.2018 06:00:00 18,9 13,3 20 11 26 14 W 48 0,0
16.07.2018 05:00:00 18,7 12,9 21 11 26 14 WNW 48 0,0
16.07.2018 04:00:00 18,8 13,4 17 9 25 13 W 50 0,0
16.07.2018 03:00:00 18,7 13,8 16 9 22 12 WNW 50 0,0
16.07.2018 02:00:00 19,4 14,6 17 9 22 12 WNW 50 0,0
16.07.2018 01:00:00 20,1 16,1 17 9 21 11 W 50 0,0
16.07.2018 00:00:00 20,6 16,0 15 8 19 11 W 50 0,0
15.07.2018 23:00:00 20,7 16,9 12 7 18 10 W 50 0,0
15.07.2018 22:00:00 21,7 15,8 9 5 19 10 W 50 0,0
15.07.2018 21:00:00 22,0 15,8 8 5 23 13 W 45 0,0
15.07.2018 20:00:00 24,2 12,2 15 8 25 13 NNW 44 0,0
15.07.2018 19:00:00 23,1 16,9 16 9 32 17 WNW 40 0,0
15.07.2018 18:00:00 22,9 15,7 23 13 32 17 WSW 50 0,0
15.07.2018 17:00:00 22,6 16,4 10 5 22 12 SW 50 0,0
15.07.2018 16:00:00 22,7 16,0 13 7 31 17 S 46 0,0
15.07.2018 15:00:00 22,6 16,8 6 3 31 17 SSE 30 0,0
15.07.2018 14:00:00 21,4 18,0 21 11 28 15 S 30 0,0
15.07.2018 13:00:00 23,0 16,8 19 11 23 12 S 41 0,0
15.07.2018 12:00:00 21,7 16,9 18 10 21 11 S 32 0,0
15.07.2018 11:00:00 21,6 18,0 14 8 19 10 SSW 42 0,0
15.07.2018 10:00:00 20,8 17,6 9 5 11 6 SSE 27 0,0
15.07.2018 09:00:00 20,8 17,6 9 5 9 5 SW 33 0,0
15.07.2018 08:00:00 20,2 17,4 4 2 10 5 SW 32 0,0
15.07.2018 07:00:00 20,1 17,5 6 3 10 5 W 33 0,0
15.07.2018 06:00:00 19,6 17,6 4 2 10 5 SW 32 0,0
15.07.2018 05:00:00 19,1 17,2 7 4 13 7 SSW 34 0,0
15.07.2018 04:00:00 19,0 17,1 8 4 19 10 SW 42 0,0
15.07.2018 03:00:00 19,2 17,3 9 5 24 13 S 31 0,0
15.07.2018 02:00:00 19,6 17,9 17 9 26 14 S 41 0,0
15.07.2018 01:00:00 19,8 17,6 19 10 26 14 SSE 45 0,0
15.07.2018 00:00:00 20,2 17,0 19 10 25 13 SSE 50 0,0
14.07.2018 23:00:00 20,3 16,9 20 11 25 13 SSE 50 0,0
14.07.2018 22:00:00 20,4 16,8 17 9 23 12 SSE 50 0,0
14.07.2018 21:00:00 20,4 16,8 18 10 22 12 SSE 50 0,0
14.07.2018 20:00:00 20,6 17,2 16 9 22 12 SSE 43 0,0
14.07.2018 19:00:00 20,5 16,9 16 9 22 12 SSE 45 0,0
14.07.2018 18:00:00 20,4 17,0 16 8 24 13 SSE 45 0,0
14.07.2018 17:00:00 21,1 16,3 17 9 26 14 SSE 45 0,0
14.07.2018 16:00:00 21,5 16,5 19 10 26 14 SSE 33 0,0
14.07.2018 15:00:00 21,1 15,6 19 10 23 13 SSE 29 0,0
14.07.2018 14:00:00 20,9 15,2 15 8 21 11 SSE 39 0,0
14.07.2018 13:00:00 21,5 15,3 13 7 16 9 S 36 0,0
14.07.2018 12:00:00 21,3 16,7 11 6 14 8 S 31 0,0
14.07.2018 11:00:00 20,8 17,0 11 6 14 8 S 26 0,0
14.07.2018 10:00:00 20,7 16,7 10 5 13 7 S 32 0,0
14.07.2018 09:00:00 20,2 17,2 9 5 15 8 S 26 0,0
14.07.2018 08:00:00 19,0 16,8 11 6 16 9 SSW 39 0,0
14.07.2018 07:00:00 19,2 16,8 13 7 16 9 S 39 0,0
14.07.2018 06:00:00 19,2 17,0 13 7 14 8 S 45 0,0
14.07.2018 05:00:00 18,7 16,7 11 6 15 8 S 43 0,0
14.07.2018 04:00:00 18,8 16,9 13 7 15 8 S 41 0,0
14.07.2018 03:00:00 18,8 16,8 13 7 15 8 S 48 0,0
14.07.2018 02:00:00 18,9 16,9 11 6 15 8 S 50 0,0
14.07.2018 01:00:00 19,0 16,6 8 5 14 8 SSW 45 0,0
14.07.2018 00:00:00 19,2 16,4 11 6 16 9 SSW 50 0,0
13.07.2018 23:00:00 19,5 16,0 13 7 16 9 SSW 50 0,0
13.07.2018 22:00:00 19,8 15,7 10 5 17 9 S 50 0,0
13.07.2018 21:00:00 20,1 15,7 12 7 19 10 SW 50 0,0
13.07.2018 20:00:00 20,5 16,1 15 8 19 10 S 48 0,0
13.07.2018 19:00:00 21,0 15,5 14 7 16 8 SSW 43 0,0
13.07.2018 18:00:00 21,0 16,2 10 5 15 8 SSW 42 0,0
13.07.2018 17:00:00 21,6 16,1 10 5 14 8 S 44 0,0
13.07.2018 16:00:00 20,5 15,1 7 4 11 6 SSE 38 0,0
13.07.2018 15:00:00 20,8 15,6 6 3 12 6 S 36 0,0
13.07.2018 14:00:00 20,3 15,5 9 5 14 7 S 38 0,0
13.07.2018 13:00:00 - - - - 19 11 - - -
13.07.2018 12:00:00 20,1 15,3 6 3 24 13 SW 12 0,0
13.07.2018 11:00:00 19,8 15,9 18 10 24 13 SSW 35 0,0
13.07.2018 10:00:00 20,0 15,8 19 11 22 12 S 34 0,0
13.07.2018 09:00:00 19,7 16,2 16 9 19 10 S 39 0,0
13.07.2018 08:00:00 19,7 16,2 14 7 18 10 S 42 0,0
13.07.2018 07:00:00 19,2 16,2 13 7 19 10 S 43 0,0
13.07.2018 06:00:00 19,1 16,1 16 9 19 10 S 45 0,0
13.07.2018 05:00:00 19,0 15,9 13 7 19 11 S 49 0,0
13.07.2018 04:00:00 18,9 15,6 14 8 21 11 SSE 50 0,0
13.07.2018 03:00:00 18,8 16,0 14 8 21 11 S 50 0,0
13.07.2018 02:00:00 19,0 16,2 16 9 19 10 S 50 0,0
13.07.2018 01:00:00 19,1 16,1 16 8 19 10 SSE 50 0,0
13.07.2018 00:00:00 19,2 16,2 12 6 16 9 SSE 50 0,0
12.07.2018 23:00:00 19,6 16,4 13 7 16 9 S 50 0,0
12.07.2018 22:00:00 19,8 15,7 10 6 13 7 S 50 0,0
12.07.2018 21:00:00 20,5 15,1 9 5 11 6 S 47 0,0
12.07.2018 20:00:00 20,4 14,5 8 4 12 7 SSE 43 0,0
12.07.2018 19:00:00 20,7 13,6 9 5 12 7 SSE 35 0,0
12.07.2018 18:00:00 20,9 13,1 9 5 13 7 SSE 43 0,0
12.07.2018 17:00:00 20,8 12,0 8 5 13 7 ESE 45 0,0
12.07.2018 16:00:00 21,1 12,5 9 5 13 7 E 44 0,0
12.07.2018 15:00:00 21,8 10,0 8 4 11 6 E 44 0,0
12.07.2018 14:00:00 22,5 10,0 5 3 11 6 S 29 0,0
12.07.2018 13:00:00 22,6 13,1 9 5 11 6 S 37 0,0
12.07.2018 12:00:00 22,6 12,5 7 4 16 8 S 45 0,0
12.07.2018 11:00:00 20,7 14,6 9 5 18 10 SSE 36 0,0
12.07.2018 10:00:00 19,4 15,3 14 7 18 10 SE 42 0,0

tt = temperature
td = dewpoint
ff = wind speed
fx = gusts
dd = wind direction
vv = visibility
rr = precipitation

Next stations